Time;durP1;ratioP1;P1;durP2;ratioP2;P2;SDS_P1;SDS_P2;PMS_P1;PMS_P2;Temp;Humidity;BMP_temperature;BMP_pressure;BME280_temperature;BME280_humidity;BME280_pressure;Samples;Min_cycle;Max_cycle;Signal;HPM_P1;HPM_P2
2022/05/07 00:00:16;;;;;;;2.78;1.40;;;;;;;12.96;80.13;101244.81;6249981;23;20019;-71
2022/05/07 00:02:41;;;;;;;1.70;1.35;;;;;;;12.81;80.57;101222.75;6251801;22;20004;-72
2022/05/07 00:05:14;;;;;;;2.20;1.00;;;;;;;12.87;80.61;101229.94;6255438;23;20059;-71
2022/05/07 00:08:31;;;;;;;1.95;1.52;;;;;;;12.96;81.11;101242.06;6228246;23;20015;-73
2022/05/07 00:11:20;;;;;;;2.03;1.05;;;;;;;12.85;81.39;101218.38;6252796;23;20047;-72
2022/05/07 00:20:27;;;;;;;2.95;1.40;;;;;;;12.61;83.01;101191.28;6255994;23;20030;-74
2022/05/07 00:23:49;;;;;;;3.28;1.77;;;;;;;12.29;83.42;101161.91;6255619;23;20000;-73
2022/05/07 00:26:30;;;;;;;;;;;;;;;;;;;;;
2022/05/07 00:29:50;;;;;;;1.50;1.25;;;;;;;12.30;84.42;101191.00;6255107;23;20027;-72
2022/05/07 00:32:16;;;;;;;4.68;1.33;;;;;;;12.32;85.06;101194.31;6247605;22;20443;-73
2022/05/07 00:34:44;;;;;;;2.30;1.30;;;;;;;12.18;85.89;101180.19;6203359;23;20066;-73
2022/05/07 00:37:12;;;;;;;4.10;1.40;;;;;;;12.25;85.72;101199.19;6203712;23;20034;-73
2022/05/07 00:43:12;;;;;;;;;;;;;;;;;;;;;
2022/05/07 00:45:46;;;;;;;1.70;1.50;;;;;;;12.01;87.33;101195.91;6257143;23;20027;-76
2022/05/07 00:48:21;;;;;;;2.20;1.08;;;;;;;11.74;87.85;101158.31;6229175;23;20019;-76
2022/05/07 00:53:41;;;;;;;1.75;1.23;;;;;;;11.69;88.19;101167.25;6257714;23;20011;-73
2022/05/07 00:59:50;;;;;;;2.58;1.25;;;;;;;11.63;89.27;101175.69;6086691;23;20091;-75
2022/05/07 01:06:02;;;;;;;2.13;1.13;;;;;;;11.36;89.39;101173.72;6045897;23;20079;-77
2022/05/07 01:08:29;;;;;;;2.05;1.40;;;;;;;11.29;89.96;101182.09;6063047;23;20005;-75
2022/05/07 01:11:20;;;;;;;1.35;1.25;;;;;;;11.14;90.80;101168.16;6243947;23;20015;-74
2022/05/07 01:17:13;;;;;;;4.07;1.40;;;;;;;11.14;91.10;101182.72;6134656;23;20309;-75
2022/05/07 01:19:58;;;;;;;1.42;1.30;;;;;;;11.06;91.67;101154.94;6226410;23;20039;-73
2022/05/07 01:22:25;;;;;;;2.72;1.35;;;;;;;11.24;90.93;101184.75;6226639;23;20010;-74
2022/05/07 01:24:53;;;;;;;4.32;1.85;;;;;;;11.13;91.23;101172.00;6226296;23;20004;-74
2022/05/07 01:27:30;;;;;;;2.17;1.30;;;;;;;10.91;91.52;101148.16;6200409;23;20015;-74
2022/05/07 01:29:56;;;;;;;3.75;2.10;;;;;;;10.94;92.58;101158.59;6202131;23;20083;-75
2022/05/07 01:32:22;;;;;;;3.13;1.98;;;;;;;11.03;92.39;101180.06;6205605;23;20024;-75
2022/05/07 01:34:50;;;;;;;5.38;2.35;;;;;;;10.99;92.70;101183.31;6252190;23;20323;-76
2022/05/07 01:37:15;;;;;;;5.13;2.40;;;;;;;11.02;93.21;101181.13;6248972;22;20012;-74
2022/05/07 01:39:46;;;;;;;5.90;3.17;;;;;;;11.04;93.19;101178.97;6223955;23;20015;-74
2022/05/07 01:42:12;;;;;;;3.10;2.53;;;;;;;10.98;92.99;101165.22;6248662;23;20023;-74
2022/05/07 01:44:45;;;;;;;4.55;2.92;;;;;;;10.97;93.12;101155.34;6248243;23;20004;-75
2022/05/07 01:58:29;;;;;;;4.60;2.88;;;;;;;11.34;89.37;101153.94;6062998;23;20030;-75
2022/05/07 02:00:55;;;;;;;5.78;4.00;;;;;;;11.61;89.05;101183.31;6002662;23;20011;-74
2022/05/07 02:03:21;;;;;;;9.38;4.25;;;;;;;11.73;88.16;101191.44;6173807;22;20042;-74
2022/05/07 02:05:57;;;;;;;7.38;4.38;;;;;;;11.81;87.16;101191.81;6228457;23;20016;-73
2022/05/07 02:09:00;;;;;;;;;;;;;;;;;;;;;
2022/05/07 02:11:39;;;;;;;8.85;5.22;;;;;;;11.67;86.57;101166.69;6245760;22;20042;-74
2022/05/07 02:14:35;;;;;;;7.25;3.97;;;;;;;11.68;86.78;101164.78;6253064;23;20042;-74
2022/05/07 02:17:59;;;;;;;10.73;4.75;;;;;;;11.85;86.42;101194.88;6239653;23;20004;-73
2022/05/07 02:20:58;;;;;;;;;;;;;;;;;;;;;
2022/05/07 02:23:39;;;;;;;4.97;3.80;;;;;;;11.74;85.49;101158.31;6242763;22;20019;-72
2022/05/07 02:26:28;;;;;;;5.97;4.32;;;;;;;11.56;85.25;101153.94;6225082;23;20012;-75
2022/05/07 02:29:23;;;;;;;7.78;4.15;;;;;;;11.56;85.76;101191.50;6250751;23;20426;-75
2022/05/07 02:35:56;;;;;;;6.05;3.75;;;;;;;10.94;87.71;101155.03;6091360;23;20026;-74
2022/05/07 02:39:20;;;;;;;;;;;;;;;;;;;;;
2022/05/07 02:45:41;;;;;;;;;;;;;;;;;;;;;
2022/05/07 02:48:07;;;;;;;6.35;4.55;;;;;;;10.84;88.15;101191.28;6241064;23;20351;-74
2022/05/07 02:50:35;;;;;;;9.88;5.40;;;;;;;10.66;89.04;101173.22;6250584;23;20003;-74
2022/05/07 02:53:53;;;;;;;;;;;;;;;;;;;;;
2022/05/07 02:59:55;;;;;;;9.52;5.03;;;;;;;10.36;90.12;101168.03;6161593;23;20086;-75
2022/05/07 03:02:58;;;;;;;;;;;;;;;;;;;;;
2022/05/07 03:05:31;;;;;;;7.47;5.65;;;;;;;10.30;90.97;101187.03;6252051;23;20024;-75
2022/05/07 03:08:18;;;;;;;8.88;6.13;;;;;;;9.96;91.24;101139.69;6201091;23;20102;-75
2022/05/07 03:11:15;;;;;;;10.82;5.75;;;;;;;9.99;91.50;101163.78;6197986;23;20486;-73
2022/05/07 03:14:02;;;;;;;7.78;5.28;;;;;;;9.79;92.19;101148.63;6167709;23;20083;-73
2022/05/07 03:16:27;;;;;;;7.72;5.78;;;;;;;9.77;92.09;101156.25;6222074;23;20491;-75
2022/05/07 03:22:41;;;;;;;;;;;;;;;;;;;;;
2022/05/07 03:32:37;;;;;;;6.63;5.35;;;;;;;9.58;93.19;101182.91;6123419;23;19926;-73
2022/05/07 03:35:31;;;;;;;8.98;6.13;;;;;;;9.56;93.55;101187.78;6127176;23;20021;-73
2022/05/07 03:42:01;;;;;;;9.30;6.53;;;;;;;9.62;94.16;101199.63;5983062;24;20049;-73
2022/05/07 03:45:25;;;;;;;9.25;6.28;;;;;;;9.33;93.63;101160.50;6129198;23;20061;-72
2022/05/07 03:48:32;;;;;;;;;;;;;;;;;;;;;
2022/05/07 03:55:17;;;;;;;10.10;6.45;;;;;;;9.51;94.51;101212.25;6043799;23;20019;-73
2022/05/07 03:58:27;;;;;;;13.38;6.78;;;;;;;9.39;94.73;101195.06;6042634;23;19999;-74
2022/05/07 04:01:34;;;;;;;7.95;5.95;;;;;;;9.29;94.44;101186.63;6076687;23;20010;-77
2022/05/07 04:04:49;;;;;;;;;;;;;;;;;;;;;
2022/05/07 04:07:34;;;;;;;10.27;6.40;;;;;;;9.29;95.34;101192.06;6076676;23;20030;-74
2022/05/07 04:10:09;;;;;;;;;;;;;;;;;;;;;
2022/05/07 04:12:45;;;;;;;8.38;6.07;;;;;;;9.57;95.07;101208.53;6100170;23;20040;-73
2022/05/07 04:15:14;;;;;;;8.25;5.82;;;;;;;9.46;94.77;101187.53;6076586;23;20187;-75
2022/05/07 04:18:21;;;;;;;9.45;6.57;;;;;;;9.72;94.65;101218.16;6091991;23;20009;-74
2022/05/07 04:20:46;;;;;;;9.38;6.43;;;;;;;9.70;94.75;101221.13;6142994;23;20008;-76
2022/05/07 04:23:15;;;;;;;9.15;6.50;;;;;;;9.42;94.11;101176.28;6171933;23;20051;-75
2022/05/07 04:25:47;;;;;;;6.85;5.35;;;;;;;9.54;94.21;101194.56;6196912;23;20008;-76
2022/05/07 04:28:26;;;;;;;12.63;5.85;;;;;;;9.72;94.51;101213.50;6196743;23;20000;-77
2022/05/07 04:31:05;;;;;;;;;;;;;;;;;;;;;
2022/05/07 04:36:42;;;;;;;12.25;5.97;;;;;;;10.05;93.24;101186.59;6210053;23;20012;-75
2022/05/07 04:39:25;;;;;;;7.10;5.38;;;;;;;10.31;92.41;101196.91;6180833;23;20012;-76
2022/05/07 04:42:01;;;;;;;8.45;5.70;;;;;;;10.69;91.76;101216.47;6226386;23;20086;-74
2022/05/07 04:44:35;;;;;;;8.93;5.60;;;;;;;10.80;90.66;101209.25;6226154;23;20026;-75
2022/05/07 04:47:42;;;;;;;6.60;4.97;;;;;;;10.98;90.02;101203.53;6226809;23;20059;-75
2022/05/07 04:50:16;;;;;;;8.48;4.93;;;;;;;11.30;88.53;101229.47;6190367;23;20008;-74
2022/05/07 04:53:02;;;;;;;;;;;;;;;;;;;;;
2022/05/07 04:55:31;;;;;;;6.43;4.63;;;;;;;11.35;87.42;101219.41;6253991;23;20034;-74
2022/05/07 04:58:14;;;;;;;7.32;5.22;;;;;;;11.53;87.13;101233.91;6226976;23;20041;-74
2022/05/07 05:00:42;;;;;;;9.15;4.40;;;;;;;11.47;86.88;101207.53;6226130;23;20004;-75
2022/05/07 05:03:28;;;;;;;6.35;3.65;;;;;;;11.83;86.40;101251.84;6228592;23;20004;-75
2022/05/07 05:05:57;;;;;;;4.43;3.80;;;;;;;11.86;85.45;101227.50;6227079;23;20006;-75
2022/05/07 05:08:32;;;;;;;;;;;;;;;;;;;;;
2022/05/07 05:11:18;;;;;;;6.40;3.17;;;;;;;11.96;84.65;101229.56;6252053;23;20023;-75
2022/05/07 05:13:44;;;;;;;5.10;2.95;;;;;;;11.92;83.84;101222.91;6203220;23;20035;-73
2022/05/07 05:16:19;;;;;;;;;;;;;;;;;;;;;
2022/05/07 05:18:55;;;;;;;;;;;;;;;;;;;;;
2022/05/07 05:21:30;;;;;;;2.97;2.00;;;;;;;12.19;83.35;101246.81;6225925;23;20035;-75
2022/05/07 05:23:58;;;;;;;3.58;2.10;;;;;;;12.17;83.19;101246.25;6226025;23;19996;-73
2022/05/07 05:26:36;;;;;;;3.70;2.20;;;;;;;12.42;83.00;101258.59;6225932;23;20004;-74
2022/05/07 05:29:14;;;;;;;;;;;;;;;;;;;;;
2022/05/07 05:32:00;;;;;;;2.88;1.38;;;;;;;12.50;82.68;101266.34;6254202;23;20035;-74
2022/05/07 05:34:26;;;;;;;2.70;1.25;;;;;;;12.55;82.12;101249.94;6245211;22;20024;-75
2022/05/07 05:36:54;;;;;;;2.70;1.88;;;;;;;12.60;81.93;101252.75;6252511;23;20008;-75
2022/05/07 05:39:29;;;;;;;2.47;2.17;;;;;;;12.51;81.29;101241.41;6231249;23;20014;-74
2022/05/07 05:41:59;;;;;;;2.33;1.23;;;;;;;12.67;81.73;101272.56;6252810;23;20042;-73
2022/05/07 05:44:27;;;;;;;1.70;1.60;;;;;;;12.50;82.04;101250.72;6255566;23;20027;-73
2022/05/07 05:46:53;;;;;;;1.75;1.35;;;;;;;12.56;82.55;101262.59;6256883;22;20000;-73
2022/05/07 05:52:45;;;;;;;3.95;2.28;;;;;;;12.92;80.79;101268.38;6136476;23;20083;-74
2022/05/07 05:55:20;;;;;;;3.25;1.92;;;;;;;12.99;80.92;101274.50;6256466;22;20023;-73
2022/05/07 05:58:09;;;;;;;;;;;;;;;;;;;;;
2022/05/07 06:00:36;;;;;;;2.42;2.20;;;;;;;13.39;79.94;101299.81;6233877;23;20027;-74
2022/05/07 06:03:25;;;;;;;5.22;3.45;;;;;;;13.40;79.72;101307.84;6256379;23;20003;-74
2022/05/07 06:09:28;;;;;;;3.65;2.80;;;;;;;13.31;78.86;101276.41;6257412;23;20054;-73
2022/05/07 06:12:01;;;;;;;4.00;3.05;;;;;;;13.62;78.00;101315.09;6256216;23;20014;-72
2022/05/07 06:14:30;;;;;;;4.88;2.55;;;;;;;13.72;77.40;101303.34;6254514;23;20012;-74
2022/05/07 06:16:58;;;;;;;4.72;3.15;;;;;;;13.99;76.52;101330.72;6230088;23;20004;-73
2022/05/07 06:52:37;;;;;;;;;;;;;;;;;;;;;
2022/05/07 07:02:39;;;;;;;5.97;4.20;;;;;;;16.28;64.98;101317.66;5953976;24;20537;-73
2022/05/07 07:05:30;;;;;;;6.65;3.38;;;;;;;16.00;65.39;101317.22;5945310;24;20409;-73
2022/05/07 07:08:02;;;;;;;7.63;4.20;;;;;;;15.99;65.31;101327.44;5947705;24;20004;-73
2022/05/07 07:49:53;;;;;;;;;;;;;;;14.77;71.10;101379.50;6250890;23;20074;-72
2022/05/07 07:52:19;;;;;;;4.82;3.65;;;;;;;14.67;71.18;101357.44;6219867;23;19911;-73
2022/05/07 07:54:45;;;;;;;6.85;4.15;;;;;;;14.83;71.11;101361.06;6222064;23;20087;-73
2022/05/07 07:57:10;;;;;;;3.55;3.13;;;;;;;15.12;70.05;101369.66;6198216;23;20430;-73
2022/05/07 07:59:45;;;;;;;4.43;3.10;;;;;;;15.20;69.84;101343.50;6195905;23;20020;-74
2022/05/07 08:02:17;;;;;;;9.73;3.92;;;;;;;15.77;68.88;101385.66;6221250;23;20086;-74
2022/05/07 08:04:42;;;;;;;3.22;2.92;;;;;;;15.87;68.03;101355.31;6220419;23;20004;-72
2022/05/07 08:16:32;;;;;;;5.07;3.03;;;;;;;16.71;65.29;101370.47;6183423;23;20003;-74
2022/05/07 08:20:04;;;;;;;;;;;;;;;;;;;;;
2022/05/07 08:25:56;;;;;;;;;;;;;;;18.37;61.38;101392.88;5995197;23;20022;-76
2022/05/07 08:29:20;;;;;;;3.17;2.88;;;;;;;18.47;61.50;101403.81;6226544;23;19904;-76
2022/05/07 08:32:18;;;;;;;6.05;2.85;;;;;;;18.17;59.66;101366.28;6223856;23;20095;-74
2022/05/07 08:35:23;;;;;;;6.38;3.60;;;;;;;18.25;60.15;101373.91;6073537;23;20010;-73
2022/05/07 08:41:33;;;;;;;2.38;2.00;;;;;;;19.61;56.73;101359.50;6035320;23;20031;-72
2022/05/07 08:44:12;;;;;;;3.63;2.10;;;;;;;20.46;55.58;101408.44;6041579;23;20006;-74
2022/05/07 08:51:10;;;;;;;3.63;2.08;;;;;;;20.70;53.39;101395.16;6042275;23;20062;-73
2022/05/07 08:53:38;;;;;;;4.78;1.98;;;;;;;20.34;52.51;101389.50;6060121;23;20050;-72
2022/05/07 08:56:13;;;;;;;4.00;1.90;;;;;;;20.28;52.32;101405.47;6096992;23;20014;-70
2022/05/07 09:02:24;;;;;;;;;;;;;;;;;;;;;
2022/05/07 09:11:46;;;;;;;2.90;1.52;;;;;;;20.16;52.56;101369.03;6080966;23;20049;-73
2022/05/07 09:14:18;;;;;;;2.78;1.42;;;;;;;21.30;51.36;101406.34;6160368;23;20006;-73
2022/05/07 09:27:56;;;;;;;;;;;;;;;;;;;;;
2022/05/07 09:37:28;;;;;;;1.75;1.13;;;;;;;22.78;44.76;101393.19;6032220;23;20074;-76
2022/05/07 10:18:06;;;;;;;;;;;;;;;;;;;;;
2022/05/07 10:45:31;;;;;;;;;;;;;;;;;;;;;
2022/05/07 10:47:57;;;;;;;2.25;1.00;;;;;;;49.99;8.99;101388.63;6180017;23;20031;-77
2022/05/07 10:50:38;;;;;;;1.30;0.80;;;;;;;50.83;8.12;101404.75;6203468;23;20016;-76
2022/05/07 10:53:06;;;;;;;1.25;0.60;;;;;;;50.78;7.55;101392.56;6227319;23;20142;-76
2022/05/07 10:56:22;;;;;;;;;;;;;;;;;;;;;
2022/05/07 10:59:11;;;;;;;3.53;0.88;;;;;;;49.18;7.60;101408.94;6251211;23;20034;-77
2022/05/07 11:01:38;;;;;;;2.17;0.63;;;;;;;49.04;8.83;101391.16;6222914;23;20008;-77
2022/05/07 11:04:32;;;;;;;;;;;;;;;;;;;;;
2022/05/07 11:10:15;;;;;;;2.47;0.70;;;;;;;51.53;6.84;101396.25;6234891;23;20011;-76
2022/05/07 11:12:46;;;;;;;2.20;0.75;;;;;;;47.97;8.15;101387.84;6222651;23;20008;-75
2022/05/07 11:33:47;;;;;;;1.52;0.50;;;;;;;50.00;7.34;101401.84;5984847;23;20030;-77
2022/05/07 11:36:24;;;;;;;1.48;0.57;;;;;;;46.94;9.05;101373.13;5992841;23;20016;-76
2022/05/07 11:42:33;;;;;;;1.83;0.68;;;;;;;50.62;7.23;101381.72;5983627;24;20495;-76
2022/05/07 12:05:51;;;;;;;3.63;0.80;;;;;;;50.00;7.78;101370.66;6280380;22;20027;-75
2022/05/07 12:08:20;;;;;;;1.83;0.60;;;;;;;50.37;7.30;101372.66;6281168;22;19992;-75
2022/05/07 12:14:23;;;;;;;2.75;0.68;;;;;;;42.98;11.23;101332.00;6234989;22;20011;-75
2022/05/07 12:17:54;;;;;;;1.98;0.60;;;;;;;47.90;9.12;101350.66;6251376;22;20046;-77
2022/05/07 12:30:05;;;;;;;1.58;0.68;;;;;;;55.74;4.18;101348.59;6075367;23;20058;-76
2022/05/07 12:33:40;;;;;;;3.15;0.68;;;;;;;55.81;4.23;101373.53;6081447;23;20014;-77
2022/05/07 12:36:06;;;;;;;1.58;0.57;;;;;;;56.83;3.80;101377.03;6143608;22;20029;-76
2022/05/07 12:39:12;;;;;;;0.82;0.50;;;;;;;56.12;3.63;101351.25;6254856;22;20007;-76
2022/05/07 12:42:30;;;;;;;;;;;;;;;;;;;;;
2022/05/07 12:45:19;;;;;;;;;;;;;;;;;;;;;
2022/05/07 12:47:53;;;;;;;1.65;0.50;;;;;;;57.12;3.78;101348.47;6256521;22;20054;-76
2022/05/07 12:50:21;;;;;;;1.02;0.35;;;;;;;57.96;3.61;101356.19;6280506;22;20057;-75
2022/05/07 12:52:49;;;;;;;1.10;0.60;;;;;;;56.81;3.50;101338.63;6277052;22;20000;-75
2022/05/07 12:55:24;;;;;;;1.65;0.70;;;;;;;50.71;5.66;101337.81;6281969;22;20123;-76
2022/05/07 12:58:08;;;;;;;2.40;0.75;;;;;;;44.02;8.58;101334.78;6254805;22;20009;-75
2022/05/07 13:00:35;;;;;;;1.52;0.73;;;;;;;40.93;11.06;101321.84;6229280;22;20012;-74
2022/05/07 13:03:09;;;;;;;0.80;0.52;;;;;;;45.03;9.24;101327.28;6279931;22;20000;-75
2022/05/07 13:06:25;;;;;;;1.98;0.38;;;;;;;49.89;6.83;101322.00;6230578;22;20439;-75
2022/05/07 13:09:03;;;;;;;;;;;;;;;;;;;;;
2022/05/07 13:11:37;;;;;;;1.42;0.50;;;;;;;50.79;5.91;101340.97;6279970;22;20047;-75
2022/05/07 13:14:30;;;;;;;0.85;0.40;;;;;;;53.53;5.19;101351.41;6254285;22;20000;-75
2022/05/07 13:17:08;;;;;;;1.40;0.70;;;;;;;54.46;4.49;101351.25;6254889;22;19999;-76
2022/05/07 13:19:52;;;;;;;1.15;0.50;;;;;;;55.22;3.76;101336.34;6252771;22;20369;-75
2022/05/07 13:22:18;;;;;;;0.77;0.30;;;;;;;55.67;4.08;101333.84;6252395;22;20004;-76
2022/05/07 13:24:46;;;;;;;0.93;0.50;;;;;;;56.84;3.64;101325.75;6250114;22;20000;-78
2022/05/07 13:27:23;;;;;;;3.97;0.63;;;;;;;57.42;3.41;101334.56;6279296;22;20004;-75
2022/05/07 13:29:51;;;;;;;0.47;0.30;;;;;;;57.27;2.91;101350.75;6251635;22;20425;-75
2022/05/07 13:32:26;;;;;;;1.52;0.60;;;;;;;57.06;2.82;101344.91;6254119;22;20304;-76
2022/05/07 13:35:52;;;;;;;2.05;0.60;;;;;;;56.43;3.26;101341.97;6254376;22;20003;-75
2022/05/07 13:41:49;;;;;;;5.18;0.60;;;;;;;56.25;3.37;101347.44;6259870;22;20528;-76
2022/05/07 13:44:16;;;;;;;1.55;0.73;;;;;;;53.88;4.03;101318.28;6255478;22;20485;-76
2022/05/07 13:46:45;;;;;;;1.25;0.50;;;;;;;47.97;6.46;101327.00;6229615;22;20026;-76
2022/05/07 13:49:11;;;;;;;1.25;0.52;;;;;;;44.70;8.44;101325.13;6256789;22;20085;-76
2022/05/07 13:51:44;;;;;;;1.42;0.80;;;;;;;48.53;6.89;101326.09;6282924;22;20345;-76
2022/05/07 13:54:27;;;;;;;1.73;0.55;;;;;;;47.14;7.36;101331.09;6232102;22;20012;-76
2022/05/07 13:56:55;;;;;;;1.67;0.68;;;;;;;45.63;7.67;101311.91;6256159;22;20004;-75
2022/05/07 13:59:36;;;;;;;;;;;;;;;;;;;;;
2022/05/07 14:02:09;;;;;;;1.17;0.60;;;;;;;43.31;9.62;101301.94;6282517;22;20035;-76
2022/05/07 14:04:45;;;;;;;;;;;;;;;;;;;;;
2022/05/07 14:07:14;;;;;;;2.67;0.57;;;;;;;50.28;5.98;101323.44;6283599;22;20035;-75
2022/05/07 14:09:47;;;;;;;1.10;0.57;;;;;;;52.02;4.84;101338.34;6256438;22;20014;-76
2022/05/07 14:12:26;;;;;;;0.77;0.32;;;;;;;52.84;4.69;101315.47;6254257;22;19995;-76
2022/05/07 14:15:18;;;;;;;3.33;0.60;;;;;;;54.06;4.25;101318.84;6232142;22;20430;-75
2022/05/07 14:17:55;;;;;;;1.05;0.32;;;;;;;54.16;3.64;101302.47;6234492;22;20000;-76
2022/05/07 14:29:35;;;;;;;1.52;0.63;;;;;;;44.07;8.18;101302.44;6086105;23;20022;-77
2022/05/07 14:32:10;;;;;;;1.38;0.73;;;;;;;39.85;10.39;101296.19;6103903;23;20001;-76
2022/05/07 14:35:08;;;;;;;2.13;0.60;;;;;;;39.90;11.10;101298.53;6103830;23;20002;-77
2022/05/07 14:38:27;;;;;;;;;;;;;;;;;;;;;
2022/05/07 14:40:50;;;;;;;1.60;0.70;;;;;;;48.78;6.27;101306.22;6192480;22;20000;-77
2022/05/07 14:43:39;;;;;;;1.30;0.60;;;;;;;50.79;5.89;101306.84;6254017;22;20020;-74
2022/05/07 14:46:47;;;;;;;;;;;;;;;;;;;;;
2022/05/07 14:49:22;;;;;;;;;;;;;;;;;;;;;
2022/05/07 14:51:48;;;;;;;2.45;0.82;;;;;;;52.50;4.13;101289.47;6282732;22;20035;-76
2022/05/07 14:54:48;;;;;;;1.00;0.40;;;;;;;52.83;3.85;101285.47;6230458;22;20039;-77
2022/05/07 14:57:23;;;;;;;0.93;0.70;;;;;;;52.46;4.02;101294.84;6255367;22;20023;-75
2022/05/07 14:59:48;;;;;;;1.33;0.60;;;;;;;51.46;4.43;101293.47;6253957;22;20042;-76
2022/05/07 15:02:28;;;;;;;1.42;0.68;;;;;;;48.99;5.49;101278.72;6254552;22;20004;-77
2022/05/07 15:06:00;;;;;;;;;;;;;;;;;;;;;
2022/05/07 15:11:15;;;;;;;0.98;0.60;;;;;;;51.61;5.04;101266.13;6283928;22;20046;-78
2022/05/07 15:13:49;;;;;;;1.58;0.52;;;;;;;52.86;4.63;101271.91;6257237;22;20423;-76
2022/05/07 15:16:54;;;;;;;;;;;;;;;;;;;;;
2022/05/07 15:26:50;;;;;;;0.95;0.40;;;;;;;52.83;4.15;101273.78;6281446;22;20037;-76
2022/05/07 15:29:35;;;;;;;;;;;;;;;;;;;;;
2022/05/07 17:04:32;;;;;;;25.85;9.32;;;;;;;41.43;11.95;101268.63;6193550;22;20354;-78
2022/05/07 17:07:00;;;;;;;33.72;13.73;;;;;;;38.28;13.69;101245.06;6278042;22;20015;-78
2022/05/07 17:09:41;;;;;;;30.17;11.93;;;;;;;35.46;15.28;101226.16;6254013;22;20081;-78
2022/05/07 17:12:26;;;;;;;24.55;10.73;;;;;;;33.13;16.87;101256.81;6253837;22;20003;-79
2022/05/07 17:15:26;;;;;;;18.20;7.50;;;;;;;31.43;19.13;101265.53;6279361;22;19999;-79
2022/05/07 17:18:01;;;;;;;12.73;5.15;;;;;;;29.67;20.51;101236.63;6252804;22;20004;-79
2022/05/07 17:20:45;;;;;;;;;;;;;;;;;;;;;
2022/05/07 17:29:34;;;;;;;7.82;3.13;;;;;;;26.48;23.71;101254.09;6116935;23;20016;-78
2022/05/07 17:35:26;;;;;;;5.57;2.53;;;;;;;25.90;24.71;101269.09;6158902;23;20021;-79
2022/05/07 17:38:26;;;;;;;3.90;2.15;;;;;;;25.64;25.42;101274.22;6159675;23;20010;-79
2022/05/07 17:40:53;;;;;;;5.05;2.15;;;;;;;25.58;25.89;101246.47;6158941;23;20006;-78
2022/05/07 17:46:59;;;;;;;2.25;1.20;;;;;;;26.09;25.41;101270.50;6159494;23;20036;-80
2022/05/07 17:53:08;;;;;;;;;;;;;;;;;;;;;
2022/05/07 17:59:07;;;;;;;;;;;;;;;;;;;;;
2022/05/07 18:15:29;;;;;;;3.13;1.70;;;;;;;25.53;28.51;101271.88;5962601;24;20026;-82
2022/05/07 18:18:09;;;;;;;;;;;;;;;;;;;;;
2022/05/07 18:20:56;;;;;;;4.30;1.30;;;;;;;24.66;30.41;101281.13;5992383;23;20039;-80
2022/05/07 18:59:36;;;;;;;2.70;1.10;;;;;;;20.00;35.61;101272.19;6100029;23;20333;-76
2022/05/07 19:02:22;;;;;;;;;;;;;;;;;;;;;
2022/05/07 19:08:32;;;;;;;1.48;0.70;;;;;;;19.34;37.46;101277.84;6099750;23;20062;-79
2022/05/07 19:14:11;;;;;;;1.35;0.90;;;;;;;18.95;38.48;101284.63;6085368;23;20029;-79
2022/05/07 19:16:47;;;;;;;1.60;0.90;;;;;;;18.72;39.29;101282.72;6177405;23;20012;-80
2022/05/07 19:19:25;;;;;;;;;;;;;;;;;;;;;
2022/05/07 19:21:54;;;;;;;0.80;0.70;;;;;;;18.53;39.54;101307.66;6220099;23;20024;-75
2022/05/07 19:24:26;;;;;;;1.48;0.75;;;;;;;18.31;40.00;101312.66;6193049;23;20000;-74
2022/05/07 19:26:54;;;;;;;1.75;0.85;;;;;;;18.09;40.67;101323.44;6193097;23;20013;-76
2022/05/07 19:29:57;;;;;;;;;;;;;;;;;;;;;
2022/05/07 19:32:51;;;;;;;3.65;0.77;;;;;;;17.33;42.49;101292.69;6215901;23;20407;-76
2022/05/07 19:36:07;;;;;;;4.55;1.25;;;;;;;17.10;43.49;101306.16;6194451;23;20011;-76
2022/05/07 23:44:03;;;;;;;;;;;;;;;;;;;;;
2022/05/07 23:56:29;;;;;;;2.08;0.80;;;;;;;13.44;63.83;101484.78;6130765;23;19943;-78
